Home > Products > Valid Products > FWO

000
SHUS65 KGJT 292018
FWOGJT

DAILY FIRE WEATHER OBSERVATION
NATIONAL WEATHER SERVICE GRAND JUNCTION CO
217 PM MDT FRI AUG 29 2014

STATE OF THE WEATHER (W)               1
DRY BULB TEMPERATURE                   79   DEGREES FAHRENHEIT
RELATIVE HUMIDITY (RH)                 31   PERCENT
LIGHTNING ACTIVITY LEVEL
  (LAL - MIDNIGHT TO 2 PM)             1
WIND DIRECTION                         C    DEGREES (C IF CALM)
WIND SPEED                             0    MPH
MAX TEMP (2 PM - 2 PM)                 79   DEGREES FAHRENHEIT
MIN TEMP (2 PM - 2 PM)                 56   DEGREES FAHRENHEIT
MAX RH (2 PM - 2 PM)                   84   PERCENT
MIN RH (2 PM - 2 PM)                   31   PERCENT
PCPN DURATION                          0.0  HOURS
PCPN AMT (2 PM - 2 PM)                 0.0  INCHES
LAL (2 PM - 2 PM)                      1

$$

METAR KGJT 291953Z 00000KT 10SM CLR 26/08 A3013 RMK AO2 SLP139
      T02610078




000
SHUS65 KGJT 292018
FWOGJT

DAILY FIRE WEATHER OBSERVATION
NATIONAL WEATHER SERVICE GRAND JUNCTION CO
217 PM MDT FRI AUG 29 2014

STATE OF THE WEATHER (W)               1
DRY BULB TEMPERATURE                   79   DEGREES FAHRENHEIT
RELATIVE HUMIDITY (RH)                 31   PERCENT
LIGHTNING ACTIVITY LEVEL
  (LAL - MIDNIGHT TO 2 PM)             1
WIND DIRECTION                         C    DEGREES (C IF CALM)
WIND SPEED                             0    MPH
MAX TEMP (2 PM - 2 PM)                 79   DEGREES FAHRENHEIT
MIN TEMP (2 PM - 2 PM)                 56   DEGREES FAHRENHEIT
MAX RH (2 PM - 2 PM)                   84   PERCENT
MIN RH (2 PM - 2 PM)                   31   PERCENT
PCPN DURATION                          0.0  HOURS
PCPN AMT (2 PM - 2 PM)                 0.0  INCHES
LAL (2 PM - 2 PM)                      1

$$

METAR KGJT 291953Z 00000KT 10SM CLR 26/08 A3013 RMK AO2 SLP139
      T02610078





000
SHUS65 KGJT 282025 CCA
FWOGJT

DAILY FIRE WEATHER OBSERVATION
NATIONAL WEATHER SERVICE GRAND JUNCTION CO
223 PM MDT THU AUG 28 2014

CORRECTED FOR WINDS ON METAR.  USED WINDS FROM 1952Z SINCE THE 1953Z
WINDS WERE MISSING.

STATE OF THE WEATHER (W)               2
DRY BULB TEMPERATURE                   71   DEGREES FAHRENHEIT
RELATIVE HUMIDITY (RH)                 47   PERCENT
LIGHTNING ACTIVITY LEVEL
  (LAL - MIDNIGHT TO 2 PM)             1
WIND DIRECTION                         180  DEGREES (C IF CALM)
WIND SPEED                             3    MPH
MAX TEMP (2 PM - 2 PM)                 71   DEGREES FAHRENHEIT
MIN TEMP (2 PM - 2 PM)                 56   DEGREES FAHRENHEIT
MAX RH (2 PM - 2 PM)                   97   PERCENT
MIN RH (2 PM - 2 PM)                   47   PERCENT
PCPN DURATION                          4.1  HOURS
PCPN AMT (2 PM - 2 PM)                 0.03 INCHES
LAL (2 PM - 2 PM)                      2

$$

METAR KGJT 281953Z 17003KT 10SM BKN090 22/10 A3022 RMK AO2 SLP182
      T02170100




000
SHUS65 KGJT 282025 CCA
FWOGJT

DAILY FIRE WEATHER OBSERVATION
NATIONAL WEATHER SERVICE GRAND JUNCTION CO
223 PM MDT THU AUG 28 2014

CORRECTED FOR WINDS ON METAR.  USED WINDS FROM 1952Z SINCE THE 1953Z
WINDS WERE MISSING.

STATE OF THE WEATHER (W)               2
DRY BULB TEMPERATURE                   71   DEGREES FAHRENHEIT
RELATIVE HUMIDITY (RH)                 47   PERCENT
LIGHTNING ACTIVITY LEVEL
  (LAL - MIDNIGHT TO 2 PM)             1
WIND DIRECTION                         180  DEGREES (C IF CALM)
WIND SPEED                             3    MPH
MAX TEMP (2 PM - 2 PM)                 71   DEGREES FAHRENHEIT
MIN TEMP (2 PM - 2 PM)                 56   DEGREES FAHRENHEIT
MAX RH (2 PM - 2 PM)                   97   PERCENT
MIN RH (2 PM - 2 PM)                   47   PERCENT
PCPN DURATION                          4.1  HOURS
PCPN AMT (2 PM - 2 PM)                 0.03 INCHES
LAL (2 PM - 2 PM)                      2

$$

METAR KGJT 281953Z 17003KT 10SM BKN090 22/10 A3022 RMK AO2 SLP182
      T02170100





000
SHUS65 KGJT 282023
FWOGJT

DAILY FIRE WEATHER OBSERVATION
NATIONAL WEATHER SERVICE GRAND JUNCTION CO
223 PM MDT THU AUG 28 2014

STATE OF THE WEATHER (W)               2
DRY BULB TEMPERATURE                   71   DEGREES FAHRENHEIT
RELATIVE HUMIDITY (RH)                 47   PERCENT
LIGHTNING ACTIVITY LEVEL
  (LAL - MIDNIGHT TO 2 PM)             1
WIND DIRECTION                         180  DEGREES (C IF CALM)
WIND SPEED                             3    MPH
MAX TEMP (2 PM - 2 PM)                 71   DEGREES FAHRENHEIT
MIN TEMP (2 PM - 2 PM)                 56   DEGREES FAHRENHEIT
MAX RH (2 PM - 2 PM)                   97   PERCENT
MIN RH (2 PM - 2 PM)                   47   PERCENT
PCPN DURATION                          4.1  HOURS
PCPN AMT (2 PM - 2 PM)                 0.03 INCHES
LAL (2 PM - 2 PM)                      2

$$

METAR KGJT 281953Z 10SM 17003KT BKN090 22/10 A3022 RMK AO2 SLP182
      T02170100





000
SHUS65 KGJT 282023
FWOGJT

DAILY FIRE WEATHER OBSERVATION
NATIONAL WEATHER SERVICE GRAND JUNCTION CO
223 PM MDT THU AUG 28 2014

STATE OF THE WEATHER (W)               2
DRY BULB TEMPERATURE                   71   DEGREES FAHRENHEIT
RELATIVE HUMIDITY (RH)                 47   PERCENT
LIGHTNING ACTIVITY LEVEL
  (LAL - MIDNIGHT TO 2 PM)             1
WIND DIRECTION                         180  DEGREES (C IF CALM)
WIND SPEED                             3    MPH
MAX TEMP (2 PM - 2 PM)                 71   DEGREES FAHRENHEIT
MIN TEMP (2 PM - 2 PM)                 56   DEGREES FAHRENHEIT
MAX RH (2 PM - 2 PM)                   97   PERCENT
MIN RH (2 PM - 2 PM)                   47   PERCENT
PCPN DURATION                          4.1  HOURS
PCPN AMT (2 PM - 2 PM)                 0.03 INCHES
LAL (2 PM - 2 PM)                      2

$$

METAR KGJT 281953Z 10SM 17003KT BKN090 22/10 A3022 RMK AO2 SLP182
      T02170100




000
SHUS65 KGJT 272028
FWOGJT

DAILY FIRE WEATHER OBSERVATION
NATIONAL WEATHER SERVICE GRAND JUNCTION CO
228 PM MDT WED AUG 27 2014

STATE OF THE WEATHER (W)               2
DRY BULB TEMPERATURE                   66   DEGREES FAHRENHEIT
RELATIVE HUMIDITY (RH)                 63   PERCENT
LIGHTNING ACTIVITY LEVEL
  (LAL - MIDNIGHT TO 2 PM)             5
WIND DIRECTION                         360  DEGREES (C IF CALM)
WIND SPEED                             6    MPH
MAX TEMP (2 PM - 2 PM)                 79   DEGREES FAHRENHEIT
MIN TEMP (2 PM - 2 PM)                 57   DEGREES FAHRENHEIT
MAX RH (2 PM - 2 PM)                   97   PERCENT
MIN RH (2 PM - 2 PM)                   35   PERCENT
PCPN DURATION                          7.2  HOURS
PCPN AMT (2 PM - 2 PM)                 0.44 INCHES
LAL (2 PM - 2 PM)                      5

$$

METAR KGJT 271953Z 01005KT 10SM SCT110 19/12 A3023 RMK AO2 LTG
      DSNT E AND S RAE03 TSE10 SLP189 VCSH P0002 T01890117




000
SHUS65 KGJT 272028
FWOGJT

DAILY FIRE WEATHER OBSERVATION
NATIONAL WEATHER SERVICE GRAND JUNCTION CO
228 PM MDT WED AUG 27 2014

STATE OF THE WEATHER (W)               2
DRY BULB TEMPERATURE                   66   DEGREES FAHRENHEIT
RELATIVE HUMIDITY (RH)                 63   PERCENT
LIGHTNING ACTIVITY LEVEL
  (LAL - MIDNIGHT TO 2 PM)             5
WIND DIRECTION                         360  DEGREES (C IF CALM)
WIND SPEED                             6    MPH
MAX TEMP (2 PM - 2 PM)                 79   DEGREES FAHRENHEIT
MIN TEMP (2 PM - 2 PM)                 57   DEGREES FAHRENHEIT
MAX RH (2 PM - 2 PM)                   97   PERCENT
MIN RH (2 PM - 2 PM)                   35   PERCENT
PCPN DURATION                          7.2  HOURS
PCPN AMT (2 PM - 2 PM)                 0.44 INCHES
LAL (2 PM - 2 PM)                      5

$$

METAR KGJT 271953Z 01005KT 10SM SCT110 19/12 A3023 RMK AO2 LTG
      DSNT E AND S RAE03 TSE10 SLP189 VCSH P0002 T01890117





    US Dept of Commerce
    National Oceanic and Atmospheric Administration
    National Weather Service
    1325 East West Highway
    Silver Spring, MD 20910
    Page Author: NWS Internet Services Team
Disclaimer
Information Quality
Credits
Glossary
Privacy Policy
Freedom of Information Act (FOIA)
About Us
Career Opportunities